createdAt,value
2022-08-20T00:01:24.738Z,44.91
2022-08-20T00:03:04.468Z,45.48
2022-08-20T00:03:28.464Z,45.49
2022-08-20T00:05:09.505Z,45.48
2022-08-20T00:05:30.989Z,45.48
2022-08-20T00:07:28.374Z,44.89
2022-08-20T00:09:03.141Z,45.49
2022-08-20T00:10:11.210Z,45.48
2022-08-20T00:10:33.530Z,45.49
2022-08-20T00:12:42.336Z,44.93
2022-08-20T00:14:23.062Z,45.50
2022-08-20T00:14:39.466Z,45.52
2022-08-20T00:16:24.719Z,45.50
2022-08-20T00:16:40.715Z,45.49
2022-08-20T00:18:51.734Z,44.95
2022-08-20T00:20:36.872Z,45.53
2022-08-20T00:20:50.194Z,45.53
2022-08-20T00:22:32.903Z,45.54
2022-08-20T00:22:49.120Z,45.55
2022-08-20T00:24:53.084Z,44.99
2022-08-20T00:26:51.961Z,45.56
2022-08-20T00:26:54.418Z,45.56
2022-08-20T00:28:33.606Z,45.54
2022-08-20T00:28:53.474Z,45.55
2022-08-20T00:30:56.818Z,44.99
2022-08-20T00:32:41.224Z,45.57
2022-08-20T00:32:57.533Z,45.56
2022-08-20T00:34:39.390Z,45.57
2022-08-20T00:35:01.377Z,45.56
2022-08-20T00:37:04.445Z,45.00
2022-08-20T00:38:48.410Z,45.57
2022-08-20T00:39:04.449Z,45.56
2022-08-20T00:40:32.206Z,45.57
2022-08-20T00:41:05.469Z,45.56
2022-08-20T00:43:12.051Z,45.01
2022-08-20T00:44:47.068Z,45.62
2022-08-20T00:45:40.768Z,45.65
2022-08-20T00:46:12.084Z,45.67
2022-08-20T00:48:22.859Z,45.19
2022-08-20T00:49:56.699Z,45.80
2022-08-20T00:51:05.090Z,45.81
2022-08-20T00:51:21.361Z,45.84
2022-08-20T00:53:06.013Z,45.85
2022-08-20T00:53:34.505Z,45.84
2022-08-20T00:54:19.838Z,45.84
2022-08-20T00:55:56.201Z,45.82
2022-08-20T00:57:59.841Z,45.25
2022-08-20T00:58:28.065Z,45.82
2022-08-20T00:59:27.587Z,45.81
2022-08-20T01:00:28.062Z,45.79
2022-08-20T01:01:27.113Z,45.78
2022-08-20T01:02:27.030Z,45.78
2022-08-20T01:03:27.038Z,45.78
2022-08-20T01:04:33.310Z,45.79
2022-08-20T01:05:29.646Z,45.78
2022-08-20T01:06:27.034Z,45.79
2022-08-20T01:07:27.021Z,45.80
2022-08-20T01:08:27.911Z,45.79
2022-08-20T01:09:58.005Z,45.78
2022-08-20T01:10:27.947Z,45.77
2022-08-20T01:11:26.978Z,45.76
2022-08-20T01:12:26.950Z,45.75
2022-08-20T01:13:27.265Z,45.74
2022-08-20T01:14:33.242Z,45.75
2022-08-20T01:15:31.247Z,45.75
2022-08-20T01:16:28.155Z,45.73
2022-08-20T01:17:26.822Z,45.71
2022-08-20T01:18:26.850Z,45.71
2022-08-20T01:19:33.971Z,45.73
2022-08-20T01:20:27.148Z,45.77
2022-08-20T01:21:26.910Z,45.80
2022-08-20T01:22:26.771Z,45.83
2022-08-20T01:23:26.833Z,45.86
2022-08-20T01:24:33.137Z,45.88
2022-08-20T01:25:26.820Z,45.93
2022-08-20T01:26:26.753Z,45.98
2022-08-20T01:27:26.710Z,46.01
2022-08-20T01:28:26.748Z,46.05
2022-08-20T01:29:26.721Z,46.08
2022-08-20T01:30:33.139Z,46.09
2022-08-20T01:31:26.671Z,46.09
2022-08-20T01:32:26.636Z,46.09
2022-08-20T01:33:26.621Z,46.13
2022-08-20T01:34:32.919Z,46.17
2022-08-20T01:35:26.588Z,46.17
2022-08-20T01:36:32.969Z,46.19
2022-08-20T01:37:28.645Z,46.19
2022-08-20T01:38:27.594Z,46.20
2022-08-20T01:39:26.579Z,46.19
2022-08-20T01:40:26.570Z,46.18
2022-08-20T01:41:28.527Z,46.19
2022-08-20T01:42:59.627Z,45.61
2022-08-20T01:43:55.007Z,46.20
2022-08-20T01:44:54.977Z,46.19
2022-08-20T01:45:54.987Z,46.19
2022-08-20T01:46:55.006Z,46.18
2022-08-20T01:48:01.284Z,46.20
2022-08-20T01:48:54.958Z,46.21
2022-08-20T01:49:54.916Z,46.22
2022-08-20T01:50:55.676Z,46.23
2022-08-20T01:51:55.885Z,46.25
2022-08-20T01:52:55.902Z,46.26
2022-08-20T01:54:01.178Z,46.28
2022-08-20T01:54:55.798Z,46.26
2022-08-20T01:55:54.845Z,46.27
2022-08-20T01:56:56.203Z,46.28
2022-08-20T01:57:55.016Z,46.27
2022-08-20T01:59:01.741Z,46.30
2022-08-20T01:59:56.015Z,46.32
2022-08-20T02:01:16.700Z,46.33
2022-08-20T02:01:54.847Z,46.35
2022-08-20T02:02:54.802Z,46.36
2022-08-20T02:03:54.738Z,46.39
2022-08-20T02:05:01.243Z,46.39
2022-08-20T02:05:54.715Z,46.41
2022-08-20T02:06:58.657Z,46.41
2022-08-20T02:07:54.824Z,46.41
2022-08-20T02:08:54.676Z,46.40
2022-08-20T02:09:54.689Z,46.40
2022-08-20T02:11:38.606Z,45.83
2022-08-20T02:12:38.618Z,46.38
2022-08-20T02:13:39.520Z,46.39
2022-08-20T02:14:38.579Z,46.38
2022-08-20T02:15:39.725Z,46.35
2022-08-20T02:16:44.860Z,46.36
2022-08-20T02:17:40.358Z,46.35
2022-08-20T02:18:38.526Z,46.36
2022-08-20T02:19:39.489Z,46.36
2022-08-20T02:20:38.501Z,46.38
2022-08-20T02:21:39.499Z,46.40
2022-08-20T02:22:50.042Z,46.40
2022-08-20T02:23:39.958Z,46.41
2022-08-20T02:24:38.447Z,46.43
2022-08-20T02:25:38.768Z,46.43
2022-08-20T02:26:38.419Z,46.44
2022-08-20T02:27:38.447Z,46.45
2022-08-20T02:28:45.837Z,46.48
2022-08-20T02:29:38.399Z,46.48
2022-08-20T02:30:38.410Z,46.52
2022-08-20T02:31:38.362Z,46.50
2022-08-20T02:32:39.351Z,46.51
2022-08-20T02:33:39.132Z,46.50
2022-08-20T02:34:44.641Z,46.52
2022-08-20T02:35:38.287Z,46.51
2022-08-20T02:36:38.299Z,46.51
2022-08-20T02:37:38.310Z,46.52
2022-08-20T02:38:38.270Z,46.54
2022-08-20T02:39:45.408Z,46.57
2022-08-20T02:40:38.290Z,46.58
2022-08-20T02:41:38.227Z,46.59
2022-08-20T02:42:38.235Z,46.62
2022-08-20T02:43:38.244Z,46.64
2022-08-20T02:44:44.519Z,46.66
2022-08-20T02:45:38.167Z,46.69
2022-08-20T02:46:38.192Z,46.73
2022-08-20T02:47:38.155Z,46.75
2022-08-20T02:48:38.193Z,46.75
2022-08-20T02:49:44.856Z,46.74
2022-08-20T02:51:50.732Z,46.23
2022-08-20T02:53:31.840Z,46.78
2022-08-20T02:53:52.542Z,46.78
2022-08-20T02:56:58.716Z,46.18
2022-08-20T02:58:29.217Z,46.71
2022-08-20T02:58:50.553Z,46.71
2022-08-20T03:00:37.911Z,46.69
2022-08-20T03:00:51.765Z,46.69
2022-08-20T03:02:59.387Z,46.18
2022-08-20T03:04:06.590Z,46.69
2022-08-20T03:05:40.840Z,46.68
2022-08-20T03:05:59.420Z,46.67
2022-08-20T03:08:08.253Z,46.13
2022-08-20T03:09:44.598Z,46.67
2022-08-20T03:10:07.037Z,46.68
2022-08-20T03:11:48.668Z,46.66
2022-08-20T03:12:05.603Z,46.65
2022-08-20T03:14:14.801Z,46.15
2022-08-20T03:15:24.647Z,46.66
2022-08-20T03:16:12.659Z,46.66
2022-08-20T03:17:12.442Z,46.64
2022-08-20T03:18:12.424Z,46.64
2022-08-20T03:19:19.153Z,46.61
2022-08-20T03:20:12.481Z,46.60
2022-08-20T03:21:14.646Z,46.58
2022-08-20T03:22:12.382Z,46.57
2022-08-20T03:23:12.357Z,46.55
2022-08-20T03:24:12.324Z,46.53
2022-08-20T03:25:18.572Z,46.53
2022-08-20T03:26:12.277Z,46.49
2022-08-20T03:27:12.294Z,46.46
2022-08-20T03:28:12.286Z,46.43
2022-08-20T03:29:12.321Z,46.42
2022-08-20T03:30:18.636Z,46.41
2022-08-20T03:31:12.664Z,46.39
2022-08-20T03:32:12.482Z,46.37
2022-08-20T03:33:12.226Z,46.36
2022-08-20T03:34:12.688Z,46.34
2022-08-20T03:35:12.181Z,46.33
2022-08-20T03:36:19.972Z,46.33
2022-08-20T03:37:12.179Z,46.33
2022-08-20T03:38:12.416Z,46.33
2022-08-20T03:39:12.158Z,46.31
2022-08-20T03:40:12.184Z,46.30
2022-08-20T03:41:18.477Z,46.29
2022-08-20T03:42:12.395Z,46.30
2022-08-20T03:43:12.227Z,46.31
2022-08-20T03:44:12.084Z,46.33
2022-08-20T03:45:12.087Z,46.30
2022-08-20T03:46:22.182Z,46.30
2022-08-20T03:47:20.006Z,46.30
2022-08-20T03:48:12.028Z,46.29
2022-08-20T03:49:12.366Z,46.29
2022-08-20T03:50:22.665Z,46.26
2022-08-20T03:51:13.439Z,46.25
2022-08-20T03:52:12.240Z,46.24
2022-08-20T03:53:18.513Z,46.25
2022-08-20T03:54:11.974Z,46.26
2022-08-20T03:55:11.912Z,46.27
2022-08-20T03:56:12.831Z,46.27
2022-08-20T03:57:34.162Z,46.27
2022-08-20T03:58:11.941Z,46.28
2022-08-20T03:59:18.251Z,46.28
2022-08-20T04:00:12.609Z,46.28
2022-08-20T04:01:37.155Z,46.29
2022-08-20T04:02:12.887Z,46.31
2022-08-20T04:03:11.813Z,46.29
2022-08-20T04:04:12.908Z,46.28
2022-08-20T04:05:18.835Z,46.30
2022-08-20T04:06:12.138Z,46.27
2022-08-20T04:07:11.744Z,46.27
2022-08-20T04:08:11.786Z,46.29
2022-08-20T04:09:12.281Z,46.29
2022-08-20T04:10:18.060Z,46.27
2022-08-20T04:11:12.372Z,46.27
2022-08-20T04:12:11.703Z,46.25
2022-08-20T04:13:11.700Z,46.24
2022-08-20T04:14:11.693Z,46.24
2022-08-20T04:15:12.945Z,46.21
2022-08-20T04:16:17.988Z,46.22
2022-08-20T04:17:11.650Z,46.21
2022-08-20T04:18:12.588Z,46.19
2022-08-20T04:19:11.590Z,46.16
2022-08-20T04:20:11.639Z,46.13
2022-08-20T04:21:58.442Z,45.60
2022-08-20T04:22:59.724Z,46.14
2022-08-20T04:23:58.414Z,46.13
2022-08-20T04:24:58.419Z,46.12
2022-08-20T04:25:58.376Z,46.10
2022-08-20T04:27:08.859Z,46.08
2022-08-20T04:27:58.576Z,46.06
2022-08-20T04:28:58.360Z,46.05
2022-08-20T04:29:58.383Z,46.02
2022-08-20T04:30:58.377Z,46.04
2022-08-20T04:32:05.872Z,46.03
2022-08-20T04:33:02.275Z,45.98
2022-08-20T04:33:58.988Z,45.99
2022-08-20T04:34:58.601Z,45.96
2022-08-20T04:35:58.285Z,45.94
2022-08-20T04:36:58.257Z,45.92
2022-08-20T04:38:04.555Z,45.88
2022-08-20T04:38:58.209Z,45.86
2022-08-20T04:39:58.352Z,45.82
2022-08-20T04:40:58.529Z,45.79
2022-08-20T04:41:58.260Z,45.76
2022-08-20T04:43:04.530Z,45.73
2022-08-20T04:43:58.347Z,45.72
2022-08-20T04:45:02.202Z,45.71
2022-08-20T04:45:58.816Z,45.68
2022-08-20T04:47:00.379Z,45.67
2022-08-20T04:47:58.210Z,45.68
2022-08-20T04:49:06.385Z,45.66
2022-08-20T04:49:58.089Z,45.63
2022-08-20T04:50:58.086Z,45.61
2022-08-20T04:51:58.096Z,45.58
2022-08-20T04:52:58.118Z,45.56
2022-08-20T04:53:58.054Z,45.54
2022-08-20T04:55:05.686Z,45.54
2022-08-20T04:55:58.021Z,45.53
2022-08-20T04:56:58.199Z,45.53
2022-08-20T04:58:01.063Z,45.53
2022-08-20T04:58:58.791Z,45.50
2022-08-20T05:00:04.296Z,45.47
2022-08-20T05:01:01.198Z,45.42
2022-08-20T05:01:57.971Z,45.39
2022-08-20T05:02:58.063Z,45.36
2022-08-20T05:03:57.926Z,45.30
2022-08-20T05:04:58.570Z,45.28
2022-08-20T05:06:05.235Z,45.23
2022-08-20T05:06:57.941Z,45.21
2022-08-20T05:08:00.978Z,45.19
2022-08-20T05:08:58.688Z,45.17
2022-08-20T05:09:58.275Z,45.16
2022-08-20T05:11:32.878Z,45.17
2022-08-20T05:11:58.808Z,45.16
2022-08-20T05:12:58.027Z,45.16
2022-08-20T05:13:57.786Z,45.18
2022-08-20T05:14:57.899Z,45.19
2022-08-20T05:15:58.859Z,45.23
2022-08-20T05:17:04.216Z,45.28
2022-08-20T05:17:57.848Z,45.28
2022-08-20T05:18:57.767Z,45.29
2022-08-20T05:19:57.735Z,45.32
2022-08-20T05:20:57.701Z,45.31
2022-08-20T05:21:57.791Z,45.30
2022-08-20T05:23:04.694Z,45.30
2022-08-20T05:23:57.653Z,45.27
2022-08-20T05:24:57.706Z,45.30
2022-08-20T05:25:57.611Z,45.30
2022-08-20T05:26:57.633Z,45.28
2022-08-20T05:27:57.669Z,45.27
2022-08-20T05:29:03.899Z,45.24
2022-08-20T05:29:57.560Z,45.26
2022-08-20T05:30:57.572Z,45.24
2022-08-20T05:31:57.561Z,45.22
2022-08-20T05:32:57.813Z,45.20
2022-08-20T05:33:57.539Z,45.17
2022-08-20T05:35:03.923Z,45.16
2022-08-20T05:35:57.534Z,45.15
2022-08-20T05:36:57.550Z,45.16
2022-08-20T05:37:57.614Z,45.14
2022-08-20T05:38:58.325Z,45.14
2022-08-20T05:40:05.918Z,45.13
2022-08-20T05:40:58.193Z,45.09
2022-08-20T05:41:57.493Z,45.07
2022-08-20T05:42:57.486Z,45.04
2022-08-20T05:43:59.212Z,45.00
2022-08-20T05:44:57.401Z,44.97
2022-08-20T05:46:03.766Z,44.92
2022-08-20T05:46:57.655Z,44.91
2022-08-20T05:48:39.567Z,44.90
2022-08-20T05:49:00.372Z,44.87
2022-08-20T05:50:44.766Z,44.85
2022-08-20T05:50:58.400Z,44.80
2022-08-20T05:53:08.816Z,44.23
2022-08-20T05:54:51.669Z,44.73
2022-08-20T05:55:11.649Z,44.73
2022-08-20T05:56:43.335Z,44.74
2022-08-20T05:58:19.259Z,44.25
2022-08-20T06:00:01.961Z,44.82
2022-08-20T06:00:28.928Z,44.82
2022-08-20T06:01:44.264Z,44.85
2022-08-20T06:02:58.934Z,44.85
2022-08-20T06:03:29.816Z,44.84
2022-08-20T06:05:00.717Z,44.83
2022-08-20T06:05:19.078Z,44.83
2022-08-20T06:06:45.978Z,44.84
2022-08-20T06:07:17.025Z,44.86
2022-08-20T06:09:30.966Z,44.44
2022-08-20T06:11:04.361Z,45.06
2022-08-20T06:11:27.924Z,45.12
2022-08-20T06:12:20.852Z,45.18
2022-08-20T06:13:20.468Z,45.23
2022-08-20T06:14:26.795Z,45.28
2022-08-20T06:15:20.459Z,45.35
2022-08-20T06:16:20.497Z,45.38
2022-08-20T06:17:22.318Z,45.39
2022-08-20T06:18:28.088Z,45.39
2022-08-20T06:19:25.138Z,45.40
2022-08-20T06:20:26.791Z,45.36
2022-08-20T06:21:20.399Z,45.32
2022-08-20T06:22:24.082Z,45.29
2022-08-20T06:23:21.864Z,45.26
2022-08-20T06:24:24.418Z,45.21
2022-08-20T06:25:26.679Z,45.18
2022-08-20T06:26:24.263Z,45.16
2022-08-20T06:27:21.802Z,45.13
2022-08-20T06:28:20.367Z,45.14
2022-08-20T06:29:20.991Z,45.14
2022-08-20T06:30:20.270Z,45.15
2022-08-20T06:31:26.541Z,45.17
2022-08-20T06:32:28.782Z,45.22
2022-08-20T06:33:22.451Z,45.25
2022-08-20T06:34:20.199Z,45.27
2022-08-20T06:35:20.301Z,45.31
2022-08-20T06:36:26.566Z,45.34
2022-08-20T06:37:20.150Z,45.36
2022-08-20T06:38:20.176Z,45.37
2022-08-20T06:39:20.143Z,45.38
2022-08-20T06:40:24.168Z,45.39
2022-08-20T06:41:20.209Z,45.40
2022-08-20T06:42:26.460Z,45.37
2022-08-20T06:43:21.005Z,45.37
2022-08-20T06:44:21.022Z,45.33
2022-08-20T06:46:02.770Z,45.31
2022-08-20T06:46:30.485Z,45.28
2022-08-20T06:47:57.164Z,45.22
2022-08-20T06:49:01.931Z,45.17
2022-08-20T06:49:20.304Z,45.11
2022-08-20T06:50:50.098Z,45.03
2022-08-20T06:52:02.849Z,44.94
2022-08-20T06:52:27.098Z,44.88
2022-08-20T06:53:34.800Z,44.83
2022-08-20T06:55:06.014Z,44.79
2022-08-20T06:55:26.741Z,44.74
2022-08-20T06:56:49.134Z,44.69
2022-08-20T06:58:05.921Z,44.67
2022-08-20T06:58:36.727Z,44.63
2022-08-20T07:00:32.476Z,44.07
2022-08-20T07:02:13.534Z,44.61
2022-08-20T07:02:35.577Z,44.59
2022-08-20T07:04:12.009Z,44.63
2022-08-20T07:04:29.651Z,44.68
2022-08-20T07:06:40.792Z,44.17
2022-08-20T07:08:02.938Z,44.74
2022-08-20T07:09:17.383Z,44.74
2022-08-20T07:09:38.139Z,44.75
2022-08-20T07:10:34.995Z,44.77
2022-08-20T07:11:34.966Z,44.80
2022-08-20T07:12:36.857Z,44.77
2022-08-20T07:13:34.911Z,44.72
2022-08-20T07:14:35.960Z,44.70
2022-08-20T07:15:34.865Z,44.66
2022-08-20T07:16:34.856Z,44.65
2022-08-20T07:17:42.243Z,44.67
2022-08-20T07:18:34.814Z,44.71
2022-08-20T07:19:35.159Z,44.74
2022-08-20T07:20:34.822Z,44.77
2022-08-20T07:21:34.805Z,44.85
2022-08-20T07:22:35.101Z,44.89
2022-08-20T07:23:41.455Z,44.91
2022-08-20T07:24:37.855Z,44.94
2022-08-20T07:25:36.230Z,44.96
2022-08-20T07:26:34.714Z,44.97
2022-08-20T07:27:35.528Z,44.99
2022-08-20T07:28:34.986Z,44.97
2022-08-20T07:29:42.197Z,44.97
2022-08-20T07:30:57.817Z,45.03
2022-08-20T07:31:35.033Z,45.07
2022-08-20T07:32:36.950Z,45.07
2022-08-20T07:33:34.656Z,45.04
2022-08-20T07:34:43.627Z,45.02
2022-08-20T07:35:35.011Z,45.00
2022-08-20T07:36:34.579Z,44.98
2022-08-20T07:37:34.649Z,45.00
2022-08-20T07:38:34.583Z,45.02
2022-08-20T07:39:40.912Z,45.04
2022-08-20T07:40:34.597Z,45.07
2022-08-20T07:41:34.558Z,45.08
2022-08-20T07:42:34.528Z,45.09
2022-08-20T07:43:34.486Z,45.09
2022-08-20T07:44:35.424Z,45.09
2022-08-20T07:45:40.987Z,45.09
2022-08-20T07:46:36.891Z,45.11
2022-08-20T07:47:34.661Z,45.13
2022-08-20T07:48:39.270Z,45.17
2022-08-20T07:49:41.127Z,45.23
2022-08-20T07:50:34.457Z,45.29
2022-08-20T07:51:40.750Z,45.31
2022-08-20T07:52:34.426Z,45.32
2022-08-20T07:53:35.815Z,45.34
2022-08-20T07:54:34.399Z,45.40
2022-08-20T07:55:34.340Z,45.44
2022-08-20T07:56:34.381Z,45.46
2022-08-20T07:57:56.689Z,45.45
2022-08-20T07:58:34.366Z,45.43
2022-08-20T07:59:34.293Z,45.36
2022-08-20T08:00:34.658Z,45.32
2022-08-20T08:01:34.351Z,45.29
2022-08-20T08:02:34.349Z,45.21
2022-08-20T08:03:50.099Z,45.16
2022-08-20T08:04:38.799Z,45.15
2022-08-20T08:05:34.281Z,45.16
2022-08-20T08:06:34.281Z,45.16
2022-08-20T08:07:34.231Z,45.07
2022-08-20T08:08:43.073Z,44.96
2022-08-20T08:09:35.068Z,44.86
2022-08-20T08:10:34.219Z,44.78
2022-08-20T08:11:35.515Z,44.71
2022-08-20T08:12:34.203Z,44.67
2022-08-20T08:13:34.171Z,44.64
2022-08-20T08:14:40.786Z,44.57
2022-08-20T08:15:38.389Z,44.54
2022-08-20T08:16:34.158Z,44.54
2022-08-20T08:17:34.104Z,44.58
2022-08-20T08:18:34.401Z,44.57
2022-08-20T08:19:34.075Z,44.57
2022-08-20T08:20:46.583Z,44.50
2022-08-20T08:21:35.571Z,44.49
2022-08-20T08:22:34.040Z,44.49
2022-08-20T08:23:34.322Z,44.47
2022-08-20T08:24:33.992Z,44.47
2022-08-20T08:25:34.012Z,44.47
2022-08-20T08:26:40.303Z,44.49
2022-08-20T08:27:33.961Z,44.53
2022-08-20T08:28:34.349Z,44.57
2022-08-20T08:29:33.982Z,44.62
2022-08-20T08:30:33.920Z,44.65
2022-08-20T08:31:40.488Z,44.72
2022-08-20T08:32:33.889Z,44.80
2022-08-20T08:33:34.112Z,44.81
2022-08-20T08:34:37.804Z,44.77
2022-08-20T08:35:33.875Z,44.78
2022-08-20T08:36:40.093Z,44.88
2022-08-20T08:37:33.879Z,44.91
2022-08-20T08:38:33.896Z,44.88
2022-08-20T08:39:35.116Z,44.89
2022-08-20T08:40:33.800Z,44.89
2022-08-20T08:41:33.762Z,44.88
2022-08-20T08:42:43.125Z,44.79
2022-08-20T08:43:34.028Z,44.70
2022-08-20T08:44:33.812Z,44.65
2022-08-20T08:46:20.487Z,44.62
2022-08-20T08:46:40.019Z,44.62
2022-08-20T08:48:48.935Z,44.12
2022-08-20T08:50:53.431Z,44.73
2022-08-20T08:50:54.257Z,44.73
2022-08-20T08:53:00.714Z,44.07
2022-08-20T08:54:36.120Z,44.51
2022-08-20T08:54:59.116Z,44.43
2022-08-20T08:56:50.420Z,44.29
2022-08-20T08:57:49.027Z,43.51
2022-08-20T08:59:24.986Z,43.97
2022-08-20T09:00:04.158Z,43.91
2022-08-20T09:01:54.542Z,43.87
2022-08-20T09:01:55.233Z,43.87
2022-08-20T09:03:35.886Z,43.89
2022-08-20T09:03:49.270Z,43.87
2022-08-20T09:05:58.210Z,43.43
2022-08-20T09:07:42.132Z,44.05
2022-08-20T09:07:57.892Z,44.14
2022-08-20T09:09:37.459Z,44.18
2022-08-20T09:09:55.804Z,44.17
2022-08-20T09:11:01.196Z,44.16
2022-08-20T09:11:54.895Z,44.13
2022-08-20T09:12:58.598Z,44.13
2022-08-20T09:13:59.381Z,44.11
2022-08-20T09:14:54.874Z,44.02
2022-08-20T09:16:01.118Z,43.92
2022-08-20T09:16:54.824Z,43.80
2022-08-20T09:17:56.002Z,43.68
2022-08-20T09:18:54.843Z,43.56
2022-08-20T09:19:55.066Z,43.44
2022-08-20T09:21:05.657Z,43.33
2022-08-20T09:21:54.740Z,43.22
2022-08-20T09:22:54.762Z,43.15
2022-08-20T09:23:54.785Z,43.11
2022-08-20T09:24:54.756Z,43.08
2022-08-20T09:26:01.758Z,43.05
2022-08-20T09:26:54.693Z,43.03
2022-08-20T09:27:54.702Z,43.07
2022-08-20T09:29:00.959Z,43.13
2022-08-20T09:29:54.649Z,43.19
2022-08-20T09:30:54.664Z,43.27
2022-08-20T09:32:00.925Z,43.40
2022-08-20T09:32:56.065Z,43.65
2022-08-20T09:33:55.577Z,43.97
2022-08-20T09:34:54.614Z,44.27
2022-08-20T09:35:54.550Z,44.48
2022-08-20T09:36:54.570Z,44.61
2022-08-20T09:38:01.115Z,44.67
2022-08-20T09:38:54.608Z,44.69
2022-08-20T09:39:55.361Z,44.62
2022-08-20T09:40:54.601Z,44.58
2022-08-20T09:41:54.495Z,44.61
2022-08-20T09:42:54.854Z,44.67
2022-08-20T09:44:02.087Z,44.68
2022-08-20T09:44:54.493Z,44.72
2022-08-20T09:45:54.472Z,44.80
2022-08-20T09:46:54.439Z,44.91
2022-08-20T09:47:56.677Z,44.98
2022-08-20T09:49:01.009Z,45.00
2022-08-20T09:49:54.889Z,44.98
2022-08-20T09:50:54.490Z,44.93
2022-08-20T09:51:54.415Z,44.88
2022-08-20T09:52:55.028Z,44.88
2022-08-20T09:54:00.737Z,44.92
2022-08-20T09:54:54.337Z,44.95
2022-08-20T09:55:54.657Z,44.94
2022-08-20T09:56:54.389Z,44.88
2022-08-20T09:57:54.367Z,44.72
2022-08-20T09:58:54.315Z,44.53
2022-08-20T10:00:00.570Z,44.42
2022-08-20T10:00:54.580Z,44.34
2022-08-20T10:01:54.318Z,44.38
2022-08-20T10:02:54.578Z,44.45
2022-08-20T10:03:55.182Z,44.46
2022-08-20T10:04:55.999Z,44.33
2022-08-20T10:06:00.839Z,44.17
2022-08-20T10:06:57.908Z,44.06
2022-08-20T10:07:54.172Z,44.04
2022-08-20T10:08:54.179Z,43.97
2022-08-20T10:09:54.199Z,43.88
2022-08-20T10:10:55.145Z,43.85
2022-08-20T10:12:00.488Z,43.76
2022-08-20T10:12:55.090Z,43.63
2022-08-20T10:13:57.178Z,43.51
2022-08-20T10:15:15.244Z,43.39
2022-08-20T10:15:54.553Z,43.25
2022-08-20T10:16:54.090Z,43.15
2022-08-20T10:18:37.553Z,42.50
2022-08-20T10:19:37.409Z,43.07
2022-08-20T10:20:37.054Z,43.09
2022-08-20T10:21:41.255Z,43.11
2022-08-20T10:22:37.044Z,43.07
2022-08-20T10:23:43.394Z,43.08
2022-08-20T10:24:37.054Z,43.06
2022-08-20T10:25:37.008Z,43.05
2022-08-20T10:26:41.206Z,43.07
2022-08-20T10:27:37.014Z,43.06
2022-08-20T10:28:43.306Z,43.03
2022-08-20T10:29:36.991Z,43.00
2022-08-20T10:30:37.014Z,42.98
2022-08-20T10:31:36.941Z,42.93
2022-08-20T10:32:36.935Z,42.85
2022-08-20T10:33:43.270Z,42.71
2022-08-20T10:34:36.909Z,42.57
2022-08-20T10:35:36.904Z,42.43
2022-08-20T10:36:36.897Z,42.33
2022-08-20T10:37:36.881Z,42.21
2022-08-20T10:38:43.369Z,42.09
2022-08-20T10:39:37.413Z,41.98
2022-08-20T10:40:36.854Z,41.90
2022-08-20T10:41:39.054Z,41.79
2022-08-20T10:42:41.960Z,41.73
2022-08-20T10:43:44.404Z,41.68
2022-08-20T10:44:37.134Z,41.64
2022-08-20T10:45:37.092Z,41.64
2022-08-20T10:46:36.757Z,41.66
2022-08-20T10:47:36.748Z,41.68
2022-08-20T10:48:43.123Z,41.73
2022-08-20T10:49:37.090Z,41.75
2022-08-20T10:50:36.752Z,41.76
2022-08-20T10:51:36.666Z,41.76
2022-08-20T10:52:41.123Z,41.77
2022-08-20T10:53:36.694Z,41.75
2022-08-20T10:54:43.316Z,41.75
2022-08-20T10:55:36.649Z,41.75
2022-08-20T10:56:36.956Z,41.74
2022-08-20T10:57:39.674Z,41.73
2022-08-20T10:58:39.255Z,41.72
2022-08-20T10:59:44.128Z,41.69
2022-08-20T11:00:36.584Z,41.66
2022-08-20T11:01:36.934Z,41.64
2022-08-20T11:02:36.571Z,41.64
2022-08-20T11:03:36.676Z,41.63
2022-08-20T11:04:36.560Z,41.59
2022-08-20T11:05:42.869Z,41.60
2022-08-20T11:06:36.497Z,41.62
2022-08-20T11:07:49.977Z,41.63
2022-08-20T11:08:42.262Z,41.66
2022-08-20T11:09:36.484Z,41.69
2022-08-20T11:10:38.555Z,41.76
2022-08-20T11:11:42.815Z,41.86
2022-08-20T11:12:36.469Z,42.01
2022-08-20T11:13:36.417Z,42.20
2022-08-20T11:14:36.554Z,42.28
2022-08-20T11:15:36.485Z,42.36
2022-08-20T11:16:36.390Z,42.44
2022-08-20T11:17:45.390Z,42.54
2022-08-20T11:18:40.962Z,42.63
2022-08-20T11:19:36.371Z,42.75
2022-08-20T11:20:36.319Z,42.87
2022-08-20T11:21:36.660Z,42.95
2022-08-20T11:22:43.220Z,43.00
2022-08-20T11:23:36.317Z,43.10
2022-08-20T11:24:36.333Z,43.17
2022-08-20T11:25:36.286Z,43.23
2022-08-20T11:26:36.277Z,43.24
2022-08-20T11:27:36.675Z,43.23
2022-08-20T11:28:42.579Z,43.19
2022-08-20T11:29:36.227Z,43.14
2022-08-20T11:30:36.261Z,43.06
2022-08-20T11:31:36.194Z,42.96
2022-08-20T11:32:38.876Z,42.87
2022-08-20T11:33:42.507Z,42.78
2022-08-20T11:34:36.261Z,42.70
2022-08-20T11:35:43.450Z,42.68
2022-08-20T11:36:37.776Z,42.73
2022-08-20T11:37:36.143Z,42.80
2022-08-20T11:38:42.430Z,42.91
2022-08-20T11:39:39.878Z,43.02
2022-08-20T11:40:37.571Z,43.14
2022-08-20T11:41:36.068Z,43.26
2022-08-20T11:43:18.602Z,43.35
2022-08-20T11:43:36.432Z,43.43
2022-08-20T11:46:11.184Z,43.00
2022-08-20T11:47:47.993Z,43.65
2022-08-20T11:48:06.190Z,43.67
2022-08-20T11:49:42.136Z,43.66
2022-08-20T11:50:08.124Z,43.66
2022-08-20T11:51:50.370Z,43.69
2022-08-20T11:52:04.782Z,43.73
2022-08-20T11:53:45.576Z,43.78
2022-08-20T11:54:19.036Z,43.80
2022-08-20T11:56:17.731Z,43.27
2022-08-20T11:57:56.622Z,43.93
2022-08-20T11:58:15.089Z,43.94
2022-08-20T11:59:30.545Z,43.94
2022-08-20T12:00:21.297Z,43.95
2022-08-20T12:01:32.880Z,43.95
2022-08-20T12:02:29.789Z,43.94
2022-08-20T12:03:19.805Z,43.92
2022-08-20T12:04:21.088Z,43.92
2022-08-20T12:05:19.851Z,43.90
2022-08-20T12:06:22.058Z,43.91
2022-08-20T12:07:27.094Z,43.92
2022-08-20T12:08:26.843Z,43.93
2022-08-20T12:09:23.037Z,43.96
2022-08-20T12:10:13.329Z,43.97
2022-08-20T12:11:11.759Z,43.97
2022-08-20T12:12:11.752Z,43.97
2022-08-20T12:13:18.036Z,43.96
2022-08-20T12:14:11.773Z,43.96
2022-08-20T12:15:11.741Z,43.96
2022-08-20T12:16:11.698Z,43.94
2022-08-20T12:17:11.683Z,43.92
2022-08-20T12:18:11.979Z,43.91
2022-08-20T12:19:18.046Z,43.94
2022-08-20T12:20:11.712Z,43.97
2022-08-20T12:21:11.649Z,43.95
2022-08-20T12:22:22.483Z,43.92
2022-08-20T12:23:13.088Z,43.90
2022-08-20T12:24:18.243Z,43.85
2022-08-20T12:25:11.609Z,43.81
2022-08-20T12:26:11.570Z,43.76
2022-08-20T12:27:11.543Z,43.69
2022-08-20T12:28:11.548Z,43.60
2022-08-20T12:29:11.576Z,43.52
2022-08-20T12:30:17.832Z,43.42
2022-08-20T12:31:11.487Z,43.36
2022-08-20T12:32:11.494Z,43.31
2022-08-20T12:33:11.491Z,43.30
2022-08-20T12:34:11.494Z,43.29
2022-08-20T12:35:17.903Z,43.30
2022-08-20T12:36:11.467Z,43.32
2022-08-20T12:37:15.767Z,43.34
2022-08-20T12:38:11.423Z,43.37
2022-08-20T12:39:11.456Z,43.38
2022-08-20T12:40:17.737Z,43.39
2022-08-20T12:41:12.907Z,43.38
2022-08-20T12:42:11.422Z,43.32
2022-08-20T12:43:11.355Z,43.22
2022-08-20T12:44:13.469Z,43.12
2022-08-20T12:45:11.389Z,43.05
2022-08-20T12:46:17.604Z,43.03
2022-08-20T12:47:11.346Z,43.08
2022-08-20T12:48:11.314Z,43.17
2022-08-20T12:49:11.321Z,43.28
2022-08-20T12:50:11.271Z,43.42
2022-08-20T12:51:17.569Z,43.58
2022-08-20T12:52:11.265Z,43.73
2022-08-20T12:53:11.251Z,43.86
2022-08-20T12:54:11.305Z,43.98
2022-08-20T12:55:11.188Z,44.08
2022-08-20T12:56:17.550Z,44.19
2022-08-20T12:57:11.728Z,44.29
2022-08-20T12:58:11.184Z,44.40
2022-08-20T12:59:11.162Z,44.48
2022-08-20T13:00:11.127Z,44.58
2022-08-20T13:01:17.540Z,44.66
2022-08-20T13:02:15.850Z,44.72
2022-08-20T13:03:12.591Z,44.76
2022-08-20T13:04:11.455Z,44.80
2022-08-20T13:05:11.147Z,44.85
2022-08-20T13:06:17.340Z,44.95
2022-08-20T13:07:11.570Z,45.02
2022-08-20T13:08:11.021Z,45.07
2022-08-20T13:09:11.132Z,45.14
2022-08-20T13:10:11.242Z,45.19
2022-08-20T13:11:11.943Z,45.23
2022-08-20T13:12:17.606Z,45.27
2022-08-20T13:13:11.270Z,45.33
2022-08-20T13:14:10.975Z,45.41
2022-08-20T13:15:10.958Z,45.50
2022-08-20T13:16:10.920Z,45.57
2022-08-20T13:17:10.889Z,45.62
2022-08-20T13:18:17.224Z,45.63
2022-08-20T13:19:10.894Z,45.63
2022-08-20T13:20:10.894Z,45.65
2022-08-20T13:21:10.869Z,45.65
2022-08-20T13:22:10.874Z,45.69
2022-08-20T13:23:17.126Z,45.71
2022-08-20T13:24:10.965Z,45.74
2022-08-20T13:25:10.804Z,45.76